NCAR-RAP Real-Time Weather Data

Output produced by METARs form (14 October 2019  23:41 UTC)
found at http://weather.rap.ucar.edu/surface/
 
KJFK 142251Z 20008KT 10SM CLR 17/16 A2995 RMK AO2 SLP141 T01670161
KJFK 142151Z 17011KT 10SM CLR 18/16 A2993 RMK AO2 SLP136 T01780156
KJFK 142051Z 17013KT 10SM CLR 18/14 A2992 RMK AO2 SLP132 T01830144 55009
KJFK 141951Z 18010KT 10SM FEW250 19/13 A2992 RMK AO2 SLP131 T01890133
KJFK 141851Z 20009KT 10SM FEW250 21/13 A2992 RMK AO2 SLP132 T02060128
KJFK 141751Z 23011KT 10SM FEW040 FEW250 20/12 A2995 RMK AO2 SLP141 T02000122 10200 20144 58020
KJFK 141651Z 19010KT 10SM FEW035 FEW250 19/13 A2998 RMK AO2 SLP150 T01890128
KJFK 141551Z 25007KT 10SM FEW023 FEW035 19/12 A2999 RMK AO2 SLP156 T01890122
KJFK 141451Z 25009KT 10SM FEW021 BKN031 18/13 A3001 RMK AO2 SLP162 T01830133 50002
KJFK 141351Z 21006KT 10SM FEW015 BKN031 17/14 A3002 RMK AO2 SLP166 T01670144
KJFK 141251Z 29004KT 10SM FEW015 BKN031 16/14 A3001 RMK AO2 SLP162 T01560139
KJFK 141151Z 02003KT 10SM FEW015 BKN026 14/14 A3000 RMK AO2 SLP160 T01440144 10150 20128 53011
KJFK 141051Z 07006KT 10SM BKN027 14/13 A2998 RMK AO2 SLP153 T01390133
KJFK 141012Z 12003KT 10SM BKN026 13/13 A2998 RMK AO2 T01280128
KJFK 140951Z 00000KT 10SM FEW033 13/13 A2998 RMK AO2 SLP151 T01330133
KJFK 140851Z 00000KT 10SM BKN034 14/14 A2997 RMK AO2 SLP149 T01440139 55013
KJFK 140751Z 00000KT 10SM FEW007 SCT023 OVC041 14/14 A2997 RMK AO2 SLP148 T01440139
KJFK 140722Z 12003KT 10SM FEW007 SCT022 OVC039 14/14 A2997 RMK AO2 T01440139
KJFK 140651Z 00000KT 10SM FEW007 OVC021 14/14 A2999 RMK AO2 SLP154 T01440139
KJFK 140551Z 18006KT 10SM FEW007 OVC025 14/14 A3001 RMK AO2 SLP162 60000 T01440139 10161 20144 56011
KJFK 140542Z 17006KT 10SM FEW007 OVC025 14/14 A3001 RMK AO2 T01440139
KJFK 140451Z 17006KT 10SM OVC027 16/13 A3002 RMK AO2 SLP165 T01560133 401830117
KJFK 140445Z 18006KT 10SM OVC028 16/13 A3002 RMK AO2
KJFK 140351Z 19004KT 10SM OVC036 16/14 A3003 RMK AO2 RAE0258 SLP169 P0000 T01610139
KJFK 140251Z 20007KT 10SM -RA OVC039 16/13 A3004 RMK AO2 RAB32 SLP173 P0000 60000 T01560128 56007
KJFK 140151Z 19007KT 10SM BKN048 BKN075 OVC085 16/13 A3005 RMK AO2 SLP175 T01610128
KJFK 140051Z 20008KT 10SM BKN070 BKN250 15/12 A3005 RMK AO2 SLP177 T01500122
KJFK 132351Z 19006KT 10SM SCT065 BKN095 BKN250 16/11 A3007 RMK AO2 SLP181 T01560111 10183 20144 55000
KJFK 132251Z 19007KT 10SM SCT120 BKN250 14/10 A3006 RMK AO2 SLP178 T01440100
KJFK 132151Z 16003KT 10SM FEW095 BKN120 BKN250 16/09 A3006 RMK AO2 SLP178 T01560094
KJFK 132051Z 20008KT 10SM BKN080 BKN250 17/09 A3007 RMK AO2 SLP181 T01670089 56009
KJFK 131951Z 18007KT 10SM SCT100 BKN250 17/08 A3007 RMK AO2 SLP182 T01720083
KJFK 131851Z 16004KT 10SM BKN100 BKN250 18/07 A3008 RMK AO2 SLP184 T01780067
KJFK 131751Z 00000KT 10SM FEW040 FEW095 BKN250 17/07 A3009 RMK AO2 SLP189 T01720072 10172 20128 56014
KJFK 131651Z VRB05KT 10SM FEW040 FEW095 BKN250 17/08 A3010 RMK AO2 SLP191 T01670078
KJFK 131551Z 35008KT 10SM FEW035 FEW095 BKN250 16/08 A3012 RMK AO2 SLP199 T01610078
KJFK 131451Z 02007KT 10SM FEW035 FEW095 BKN250 16/08 A3013 RMK AO2 SLP203 T01560083 51009
KJFK 131351Z 36009KT 10SM FEW032 BKN250 14/08 A3013 RMK AO2 SLP202 T01440083
KJFK 131251Z 36011KT 10SM FEW028 FEW040 BKN250 14/09 A3012 RMK AO2 SLP199 T01440094
KJFK 131151Z 36006KT 10SM FEW040 BKN250 13/11 A3011 RMK AO2 SLP194 T01280111 10156 20117 53023
KJFK 131051Z 32006KT 10SM SCT250 12/11 A3008 RMK AO2 SLP185 T01170106
KJFK 130951Z 33006KT 10SM FEW250 12/11 A3006 RMK AO2 SLP178 T01220106
KJFK 130851Z 33005KT 10SM SCT250 13/11 A3004 RMK AO2 SLP171 T01280106 53013
KJFK 130751Z 33010KT 10SM FEW250 14/11 A3002 RMK AO2 SLP164 T01390106
KJFK 130651Z 31011KT 10SM FEW250 15/10 A3000 RMK AO2 SLP159 T01500100
KJFK 130551Z 32010KT 10SM FEW045 FEW090 15/11 A3000 RMK AO2 SLP158 T01500106 10172 20150 53003
KJFK 130451Z 30010KT 10SM FEW090 16/11 A2999 RMK AO2 SLP155 T01610106 402000128
KJFK 130351Z 28008KT 10SM FEW090 FEW140 16/11 A2999 RMK AO2 SLP154 T01560111
KJFK 130251Z 26008KT 10SM FEW090 BKN140 17/11 A2999 RMK AO2 SLP155 T01670111 51008
KJFK 130151Z 26010KT 10SM BKN095 BKN250 17/11 A2999 RMK AO2 SLP155 T01720111
KJFK 130051Z 24010KT 10SM BKN120 BKN250 17/12 A2998 RMK AO2 SLP151 T01670122
KJFK 122351Z 20008KT 10SM BKN120 BKN250 16/13 A2997 RMK AO2 SLP148 T01610133 10200 20161 53008